createdAt,value
2023-04-23T00:01:30.106Z,100276.78
2023-04-23T00:03:58.534Z,100281.94
2023-04-23T00:06:26.834Z,100276.53
2023-04-23T00:08:55.316Z,100276.81
2023-04-23T00:11:22.536Z,100283.88
2023-04-23T00:13:49.997Z,100275.78
2023-04-23T00:16:19.262Z,100271.75
2023-04-23T00:18:46.553Z,100270.41
2023-04-23T00:21:14.255Z,100272.31
2023-04-23T00:23:41.622Z,100260.72
2023-04-23T00:26:08.561Z,100262.91
2023-04-23T00:28:35.638Z,100265.88
2023-04-23T00:31:02.626Z,100262.09
2023-04-23T00:33:32.715Z,100258.59
2023-04-23T00:35:59.872Z,100257.78
2023-04-23T00:38:27.088Z,100258.59
2023-04-23T00:40:54.335Z,100261.81
2023-04-23T00:43:21.906Z,100261.00
2023-04-23T00:45:49.341Z,100249.97
2023-04-23T00:48:16.853Z,100258.03
2023-04-23T00:50:43.926Z,100245.63
2023-04-23T00:53:10.902Z,100253.69
2023-04-23T00:55:38.124Z,100252.34
2023-04-23T00:58:06.756Z,100234.78
2023-04-23T01:00:42.115Z,100237.75
2023-04-23T01:03:10.602Z,100254.19
2023-04-23T01:05:37.768Z,100244.47
2023-04-23T01:08:04.930Z,100247.41
2023-04-23T01:10:33.047Z,100248.50
2023-04-23T01:13:00.210Z,100240.13
2023-04-23T01:15:27.557Z,100241.69
2023-04-23T01:17:54.895Z,100237.09
2023-04-23T01:20:22.108Z,100225.78
2023-04-23T01:22:49.067Z,100238.13
2023-04-23T01:25:16.118Z,100245.16
2023-04-23T01:27:43.780Z,100248.38
2023-04-23T01:30:11.478Z,100243.78
2023-04-23T01:32:39.269Z,100247.50
2023-04-23T01:35:07.366Z,100239.41
2023-04-23T01:37:35.914Z,100242.13
2023-04-23T01:40:03.042Z,100235.09
2023-04-23T01:42:30.245Z,100239.13
2023-04-23T01:44:57.952Z,100234.78
2023-04-23T01:47:25.496Z,100238.78
2023-04-23T01:49:52.648Z,100235.28
2023-04-23T01:52:19.794Z,100235.81
2023-04-23T01:54:46.909Z,100223.91
2023-04-23T01:57:14.042Z,100226.34
2023-04-23T01:59:42.758Z,100227.94
2023-04-23T02:02:13.946Z,100218.75
2023-04-23T02:04:44.857Z,100226.28
2023-04-23T02:07:12.209Z,100226.56
2023-04-23T02:09:39.911Z,100227.88
2023-04-23T02:12:06.886Z,100221.41
2023-04-23T02:14:33.833Z,100213.28
2023-04-23T02:17:01.260Z,100212.50
2023-04-23T02:19:28.214Z,100211.41
2023-04-23T02:21:55.634Z,100217.03
2023-04-23T02:24:22.756Z,100209.78
2023-04-23T02:26:49.683Z,100213.00
2023-04-23T02:29:16.957Z,100207.31
2023-04-23T02:31:44.009Z,100204.38
2023-04-23T02:34:11.222Z,100207.84
2023-04-23T02:36:39.398Z,100208.94
2023-04-23T02:39:07.053Z,100232.72
2023-04-23T02:41:34.018Z,100216.91
2023-04-23T02:44:01.209Z,100221.13
2023-04-23T02:46:28.172Z,100221.06
2023-04-23T02:48:55.443Z,100219.84
2023-04-23T02:51:22.638Z,100228.88
2023-04-23T02:53:49.682Z,100221.44
2023-04-23T02:56:16.906Z,100202.69
2023-04-23T02:58:44.210Z,100210.81
2023-04-23T03:01:11.532Z,100207.38
2023-04-23T03:03:38.896Z,100200.44
2023-04-23T03:06:06.980Z,100202.06
2023-04-23T03:08:34.294Z,100220.41
2023-04-23T03:11:01.350Z,100230.94
2023-04-23T03:13:28.527Z,100220.75
2023-04-23T03:15:56.076Z,100220.25
2023-04-23T03:18:23.304Z,100243.13
2023-04-23T03:20:53.371Z,100236.16
2023-04-23T03:23:20.308Z,100240.75
2023-04-23T03:25:48.330Z,100223.25
2023-04-23T03:28:15.534Z,100215.47
2023-04-23T03:30:43.020Z,100225.41
2023-04-23T03:33:10.223Z,100207.94
2023-04-23T03:35:37.683Z,100211.41
2023-04-23T03:38:09.227Z,100199.59
2023-04-23T03:40:36.886Z,100199.03
2023-04-23T03:43:06.105Z,100202.78
2023-04-23T03:45:51.740Z,100196.59
2023-04-23T03:48:21.763Z,100194.97
2023-04-23T03:50:49.696Z,100193.63
2023-04-23T03:53:30.603Z,100200.38
2023-04-23T03:56:16.271Z,100202.78
2023-04-23T03:58:52.834Z,100191.22
2023-04-23T04:01:20.028Z,100189.63
2023-04-23T04:03:47.193Z,100192.28
2023-04-23T04:06:16.031Z,100180.19
2023-04-23T04:08:43.190Z,100180.44
2023-04-23T04:11:10.316Z,100192.81
2023-04-23T04:13:37.332Z,100185.28
2023-04-23T04:16:04.770Z,100191.19
2023-04-23T04:18:31.954Z,100200.06
2023-04-23T04:20:59.060Z,100213.25
2023-04-23T04:23:26.838Z,100203.84
2023-04-23T04:25:56.609Z,100210.59
2023-04-23T04:28:25.224Z,100207.66
2023-04-23T04:30:57.951Z,100212.75
2023-04-23T04:33:25.804Z,100206.31
2023-04-23T04:35:52.877Z,100201.47
2023-04-23T04:38:19.938Z,100204.13
2023-04-23T04:40:46.874Z,100215.16
2023-04-23T04:43:13.701Z,100204.38
2023-04-23T04:45:40.648Z,100216.75
2023-04-23T04:48:07.826Z,100218.34
2023-04-23T04:50:35.581Z,100214.84
2023-04-23T04:53:02.744Z,100209.72
2023-04-23T04:55:29.571Z,100217.50
2023-04-23T04:57:56.698Z,100216.16
2023-04-23T05:00:29.620Z,100213.97
2023-04-23T05:02:58.683Z,100218.81
2023-04-23T05:05:27.626Z,100213.16
2023-04-23T05:07:54.907Z,100220.69
2023-04-23T05:10:22.287Z,100224.13
2023-04-23T05:12:52.018Z,100223.88
2023-04-23T05:15:19.117Z,100224.66
2023-04-23T05:17:46.528Z,100221.69
2023-04-23T05:20:14.589Z,100226.50
2023-04-23T05:22:42.721Z,100221.09
2023-04-23T05:25:11.947Z,100226.44
2023-04-23T05:27:39.871Z,100223.44
2023-04-23T05:30:10.618Z,100224.47
2023-04-23T05:32:38.413Z,100222.25
2023-04-23T05:35:07.469Z,100232.44
2023-04-23T05:37:34.659Z,100222.16
2023-04-23T05:40:02.749Z,100221.28
2023-04-23T05:42:29.948Z,100217.19
2023-04-23T05:44:56.967Z,100234.09
2023-04-23T05:47:24.204Z,100228.38
2023-04-23T05:49:51.113Z,100226.97
2023-04-23T05:52:19.451Z,100228.84
2023-04-23T05:54:46.617Z,100226.59
2023-04-23T05:57:13.839Z,100216.53
2023-04-23T05:59:40.875Z,100228.84
2023-04-23T06:02:09.816Z,100229.09
2023-04-23T06:04:38.104Z,100228.22
2023-04-23T06:07:05.657Z,100230.34
2023-04-23T06:09:32.703Z,100237.53
2023-04-23T06:11:59.774Z,100238.06
2023-04-23T06:14:26.844Z,100238.56
2023-04-23T06:16:53.714Z,100229.38
2023-04-23T06:19:20.803Z,100229.59
2023-04-23T06:21:47.745Z,100230.41
2023-04-23T06:24:14.866Z,100240.34
2023-04-23T06:26:41.881Z,100229.31
2023-04-23T06:29:15.003Z,100233.84
2023-04-23T06:32:08.480Z,100240.50
2023-04-23T06:34:35.641Z,100225.91
2023-04-23T06:37:02.870Z,100225.84
2023-04-23T06:39:30.045Z,100227.69
2023-04-23T06:41:58.100Z,100238.19
2023-04-23T06:44:44.382Z,100232.19
2023-04-23T06:47:11.743Z,100229.13
2023-04-23T06:49:40.958Z,100225.78
2023-04-23T06:52:08.069Z,100229.09
2023-04-23T06:54:35.140Z,100232.69
2023-04-23T06:57:02.209Z,100232.25
2023-04-23T06:59:29.111Z,100232.91
2023-04-23T07:01:57.892Z,100235.97
2023-04-23T07:04:25.091Z,100232.09
2023-04-23T07:06:52.011Z,100237.47
2023-04-23T07:09:19.061Z,100244.47
2023-04-23T07:11:46.498Z,100233.66
2023-04-23T07:14:13.676Z,100238.19
2023-04-23T07:16:40.930Z,100243.00
2023-04-23T07:19:09.330Z,100237.88
2023-04-23T07:21:36.375Z,100249.44
2023-04-23T07:24:07.320Z,100248.13
2023-04-23T07:26:35.788Z,100251.78
2023-04-23T07:29:05.077Z,100250.69
2023-04-23T07:31:31.915Z,100253.00
2023-04-23T07:33:58.981Z,100257.41
2023-04-23T07:36:26.601Z,100254.13
2023-04-23T07:38:53.630Z,100270.56
2023-04-23T07:41:20.876Z,100267.16
2023-04-23T07:43:47.801Z,100270.59
2023-04-23T07:46:14.994Z,100266.97
2023-04-23T07:48:42.040Z,100272.25
2023-04-23T07:51:09.806Z,100279.94
2023-04-23T07:53:36.979Z,100277.13
2023-04-23T07:56:04.024Z,100272.13
2023-04-23T07:58:33.074Z,100276.22
2023-04-23T08:01:00.269Z,100278.50
2023-04-23T08:03:29.308Z,100275.13
2023-04-23T08:05:57.017Z,100268.19
2023-04-23T08:08:24.341Z,100283.25
2023-04-23T08:10:51.533Z,100290.84
2023-04-23T08:13:18.578Z,100279.00
2023-04-23T08:15:45.626Z,100279.00
2023-04-23T08:18:12.859Z,100290.31
2023-04-23T08:20:40.083Z,100286.81
2023-04-23T08:23:07.436Z,100280.59
2023-04-23T08:25:34.676Z,100284.63
2023-04-23T08:28:02.314Z,100282.22
2023-04-23T08:30:29.438Z,100277.06
2023-04-23T08:32:57.157Z,100272.94
2023-04-23T08:35:24.804Z,100283.41
2023-04-23T08:37:51.928Z,100278.53
2023-04-23T08:40:19.132Z,100283.59
2023-04-23T08:43:03.978Z,100277.34
2023-04-23T08:45:31.350Z,100273.50
2023-04-23T08:48:02.931Z,100270.75
2023-04-23T08:50:32.018Z,100270.63
2023-04-23T08:52:59.166Z,100268.84
2023-04-23T08:55:26.621Z,100273.53
2023-04-23T08:57:55.932Z,100265.53
2023-04-23T09:00:26.439Z,100277.81
2023-04-23T09:02:54.280Z,100278.22
2023-04-23T09:05:21.618Z,100283.50
2023-04-23T09:07:48.576Z,100285.63
2023-04-23T09:10:18.445Z,100287.53
2023-04-23T09:12:46.832Z,100280.50
2023-04-23T09:15:14.429Z,100283.81
2023-04-23T09:17:46.182Z,100282.47
2023-04-23T09:20:14.819Z,100284.91
2023-04-23T09:22:50.663Z,100281.97
2023-04-23T09:25:20.568Z,100284.69
2023-04-23T09:27:52.667Z,100283.03
2023-04-23T09:30:20.286Z,100286.91
2023-04-23T09:32:48.124Z,100273.16
2023-04-23T09:35:22.452Z,100283.75
2023-04-23T09:37:52.837Z,100283.81
2023-04-23T09:40:23.470Z,100290.16
2023-04-23T09:42:55.578Z,100288.81
2023-04-23T09:45:25.312Z,100295.63
2023-04-23T09:47:57.468Z,100295.38
2023-04-23T09:50:39.887Z,100294.06
2023-04-23T09:53:08.900Z,100303.28
2023-04-23T09:55:43.121Z,100298.19
2023-04-23T09:58:16.059Z,100304.13
2023-04-23T10:00:44.482Z,100303.06
2023-04-23T10:03:12.060Z,100317.34
2023-04-23T10:05:56.224Z,100307.38
2023-04-23T10:08:28.474Z,100333.88
2023-04-23T10:11:06.643Z,100316.34
2023-04-23T10:13:41.507Z,100308.81
2023-04-23T10:16:21.260Z,100321.22
2023-04-23T10:18:52.223Z,100330.66
2023-04-23T10:21:20.798Z,100327.38
2023-04-23T10:23:50.166Z,100331.41
2023-04-23T10:26:18.510Z,100339.22
2023-04-23T10:28:49.057Z,100358.88
2023-04-23T10:31:16.569Z,100350.53
2023-04-23T10:33:56.123Z,100356.41
2023-04-23T10:36:27.467Z,100348.75
2023-04-23T10:38:58.282Z,100343.34
2023-04-23T10:41:36.423Z,100333.06
2023-04-23T10:44:05.850Z,100329.19
2023-04-23T10:46:37.083Z,100329.56
2023-04-23T10:49:17.220Z,100321.63
2023-04-23T10:54:19.816Z,100333.63
2023-04-23T10:56:58.661Z,100327.72
2023-04-23T10:59:26.711Z,100326.34
2023-04-23T11:01:53.813Z,100322.28
2023-04-23T11:04:28.635Z,100327.28
2023-04-23T11:07:10.921Z,100330.44
2023-04-23T11:09:41.019Z,100330.94
2023-04-23T11:12:11.827Z,100326.09
2023-04-23T11:14:45.403Z,100315.84
2023-04-23T11:17:14.283Z,100324.06
2023-04-23T11:19:43.522Z,100333.28
2023-04-23T11:22:16.775Z,100328.84
2023-04-23T11:24:47.217Z,100323.63
2023-04-23T11:27:18.310Z,100330.78
2023-04-23T11:29:46.783Z,100332.72
2023-04-23T11:32:17.013Z,100324.19
2023-04-23T11:34:46.964Z,100315.94
2023-04-23T11:37:15.430Z,100319.97
2023-04-23T11:39:44.988Z,100324.91
2023-04-23T11:42:13.233Z,100340.78
2023-04-23T11:44:42.967Z,100330.34
2023-04-23T11:47:13.632Z,100340.50
2023-04-23T11:49:43.220Z,100337.56
2023-04-23T11:52:12.182Z,100329.91
2023-04-23T11:54:41.737Z,100322.19
2023-04-23T11:57:08.930Z,100311.78
2023-04-23T11:59:36.085Z,100303.63
2023-04-23T12:02:03.308Z,100298.13
2023-04-23T12:04:32.154Z,100317.22
2023-04-23T12:06:59.844Z,100311.28
2023-04-23T12:09:29.123Z,100306.63
2023-04-23T12:11:58.486Z,100294.97
2023-04-23T12:14:30.990Z,100289.84
2023-04-23T12:17:09.442Z,100289.56
2023-04-23T12:19:37.108Z,100304.16
2023-04-23T12:22:05.153Z,100298.56
2023-04-23T12:24:47.476Z,100296.69
2023-04-23T12:27:16.676Z,100302.47
2023-04-23T12:29:44.049Z,100307.16
2023-04-23T12:32:12.239Z,100310.25
2023-04-23T12:34:55.480Z,100324.13
2023-04-23T12:37:28.352Z,100314.34
2023-04-23T12:39:56.795Z,100320.84
2023-04-23T12:42:24.257Z,100319.94
2023-04-23T12:44:51.698Z,100311.50
2023-04-23T12:47:21.742Z,100320.38
2023-04-23T12:49:53.733Z,100318.00
2023-04-23T12:52:21.519Z,100300.19
2023-04-23T12:54:52.598Z,100293.63
2023-04-23T12:57:23.411Z,100300.16
2023-04-23T12:59:51.011Z,100288.16
2023-04-23T13:02:18.163Z,100285.00
2023-04-23T13:04:45.465Z,100280.50
2023-04-23T13:07:12.457Z,100261.53
2023-04-23T13:09:39.419Z,100263.03
2023-04-23T13:12:06.486Z,100268.72
2023-04-23T13:14:33.563Z,100254.63
2023-04-23T13:17:01.018Z,100265.19
2023-04-23T13:19:27.920Z,100260.69
2023-04-23T13:21:54.906Z,100251.22
2023-04-23T13:24:21.712Z,100251.91
2023-04-23T13:26:48.901Z,100261.88
2023-04-23T13:29:16.090Z,100257.47
2023-04-23T13:31:43.253Z,100240.47
2023-04-23T13:34:10.353Z,100241.22
2023-04-23T13:36:37.800Z,100242.69
2023-04-23T13:39:05.519Z,100232.06
2023-04-23T13:41:32.575Z,100247.94
2023-04-23T13:44:00.403Z,100236.72
2023-04-23T13:46:27.964Z,100231.63
2023-04-23T13:48:54.944Z,100237.59
2023-04-23T13:51:34.040Z,100228.53
2023-04-23T13:54:05.873Z,100230.47
2023-04-23T13:56:33.102Z,100224.88
2023-04-23T14:01:32.340Z,100229.78
2023-04-23T14:03:59.343Z,100227.78
2023-04-23T14:06:27.535Z,100222.97
2023-04-23T14:08:54.760Z,100225.91
2023-04-23T14:11:22.595Z,100227.19
2023-04-23T14:13:49.602Z,100233.53
2023-04-23T14:16:17.562Z,100228.31
2023-04-23T14:18:45.699Z,100241.59
2023-04-23T14:21:14.924Z,100234.66
2023-04-23T14:23:47.909Z,100229.59
2023-04-23T14:29:33.178Z,100236.84
2023-04-23T14:32:00.699Z,100218.50
2023-04-23T14:34:28.260Z,100228.66
2023-04-23T14:36:55.486Z,100226.41
2023-04-23T14:39:23.466Z,100219.84
2023-04-23T14:41:50.493Z,100226.13
2023-04-23T14:44:17.533Z,100226.50
2023-04-23T14:46:44.556Z,100211.59
2023-04-23T14:49:11.736Z,100213.78
2023-04-23T14:51:39.016Z,100205.03
2023-04-23T14:54:06.467Z,100201.84
2023-04-23T14:56:33.491Z,100208.31
2023-04-23T14:59:00.509Z,100204.06
2023-04-23T15:01:27.897Z,100212.81
2023-04-23T15:03:55.152Z,100209.00
2023-04-23T15:06:23.227Z,100192.53
2023-04-23T15:08:50.202Z,100186.16
2023-04-23T15:11:17.524Z,100192.25
2023-04-23T15:14:03.945Z,100181.78
2023-04-23T15:19:06.566Z,100174.41
2023-04-23T15:21:33.658Z,100179.69
2023-04-23T15:24:00.724Z,100179.00
2023-04-23T15:26:28.047Z,100173.63
2023-04-23T15:28:55.932Z,100176.09
2023-04-23T15:31:22.889Z,100173.34
2023-04-23T15:33:50.002Z,100162.81
2023-04-23T15:36:16.999Z,100169.97
2023-04-23T15:38:44.129Z,100147.84
2023-04-23T15:41:12.419Z,100152.81
2023-04-23T15:43:39.738Z,100159.53
2023-04-23T15:46:06.945Z,100155.06
2023-04-23T15:48:34.289Z,100153.13
2023-04-23T15:51:01.613Z,100156.78
2023-04-23T15:53:29.110Z,100159.44
2023-04-23T15:55:56.592Z,100158.66
2023-04-23T15:58:23.681Z,100164.16
2023-04-23T16:00:50.700Z,100162.28
2023-04-23T16:03:17.870Z,100166.78
2023-04-23T16:05:48.032Z,100165.69
2023-04-23T16:08:16.277Z,100159.94
2023-04-23T16:10:43.795Z,100148.41
2023-04-23T16:13:11.071Z,100154.78
2023-04-23T16:15:38.141Z,100132.09
2023-04-23T16:18:06.083Z,100139.75
2023-04-23T16:20:33.540Z,100137.34
2023-04-23T16:23:01.362Z,100131.88
2023-04-23T16:25:28.365Z,100137.00
2023-04-23T16:27:56.268Z,100134.22
2023-04-23T16:30:23.777Z,100143.31
2023-04-23T16:32:51.185Z,100141.84
2023-04-23T16:35:18.681Z,100126.47
2023-04-23T16:37:45.872Z,100130.25
2023-04-23T16:40:16.027Z,100124.16
2023-04-23T16:42:43.977Z,100131.84
2023-04-23T16:45:12.739Z,100127.75
2023-04-23T16:47:39.777Z,100124.16
2023-04-23T16:50:07.697Z,100122.59
2023-04-23T16:52:35.072Z,100132.59
2023-04-23T16:55:02.115Z,100127.19
2023-04-23T16:57:29.784Z,100131.00
2023-04-23T16:59:56.801Z,100122.41
2023-04-23T17:02:23.939Z,100127.06
2023-04-23T17:04:51.331Z,100117.19
2023-04-23T17:07:18.451Z,100123.63
2023-04-23T17:09:45.762Z,100120.28
2023-04-23T17:12:12.681Z,100112.09
2023-04-23T17:14:40.213Z,100114.50
2023-04-23T17:17:07.427Z,100115.63
2023-04-23T17:19:35.335Z,100113.38
2023-04-23T17:22:03.290Z,100106.50
2023-04-23T17:24:30.651Z,100087.25
2023-04-23T17:26:57.799Z,100108.50
2023-04-23T17:29:25.009Z,100108.81
2023-04-23T17:31:52.136Z,100100.75
2023-04-23T17:34:19.154Z,100102.34
2023-04-23T17:36:46.335Z,100093.97
2023-04-23T17:39:13.349Z,100093.97
2023-04-23T17:41:40.519Z,100103.78
2023-04-23T17:44:07.582Z,100100.06
2023-04-23T17:46:34.630Z,100098.56
2023-04-23T17:49:01.618Z,100093.97
2023-04-23T17:51:28.754Z,100100.47
2023-04-23T17:53:56.081Z,100086.97
2023-04-23T17:56:23.815Z,100089.31
2023-04-23T17:58:50.844Z,100104.94
2023-04-23T18:01:17.913Z,100108.03
2023-04-23T18:03:45.250Z,100103.97
2023-04-23T18:06:12.676Z,100102.97
2023-04-23T18:08:42.524Z,100098.28
2023-04-23T18:11:10.707Z,100100.13
2023-04-23T18:13:38.180Z,100100.31
2023-04-23T18:16:05.309Z,100104.56
2023-04-23T18:18:33.059Z,100120.94
2023-04-23T18:21:02.829Z,100116.34
2023-04-23T18:23:31.295Z,100109.81
2023-04-23T18:26:01.582Z,100117.34
2023-04-23T18:28:29.202Z,100111.44
2023-04-23T18:31:02.126Z,100115.66
2023-04-23T18:33:43.103Z,100129.16
2023-04-23T18:36:34.204Z,100123.72
2023-04-23T18:39:01.228Z,100122.19
2023-04-23T18:41:31.086Z,100119.91
2023-04-23T18:44:00.192Z,100137.13
2023-04-23T18:46:28.935Z,100140.59
2023-04-23T18:49:06.953Z,100139.66
2023-04-23T18:51:45.763Z,100142.56
2023-04-23T18:54:17.592Z,100142.72
2023-04-23T18:56:45.495Z,100142.06
2023-04-23T18:59:12.807Z,100133.59
2023-04-23T19:01:40.663Z,100137.47
2023-04-23T19:04:07.967Z,100138.13
2023-04-23T19:06:35.117Z,100130.75
2023-04-23T19:09:02.371Z,100127.63
2023-04-23T19:11:34.057Z,100136.13
2023-04-23T19:14:02.027Z,100122.25
2023-04-23T19:16:29.032Z,100142.56
2023-04-23T19:18:56.422Z,100127.84
2023-04-23T19:21:23.355Z,100130.34
2023-04-23T19:23:53.951Z,100144.19
2023-04-23T19:26:20.983Z,100139.97
2023-04-23T19:28:47.891Z,100138.44
2023-04-23T19:31:15.219Z,100134.72
2023-04-23T19:33:45.224Z,100139.94
2023-04-23T19:36:12.357Z,100137.03
2023-04-23T19:38:39.819Z,100136.03
2023-04-23T19:41:07.705Z,100111.59
2023-04-23T19:43:35.039Z,100130.22
2023-04-23T19:46:02.119Z,100121.13
2023-04-23T19:48:29.213Z,100119.03
2023-04-23T19:50:56.144Z,100116.63
2023-04-23T19:53:23.198Z,100113.72
2023-04-23T19:55:50.400Z,100130.66
2023-04-23T19:58:18.734Z,100123.97
2023-04-23T20:00:46.076Z,100119.47
2023-04-23T20:03:13.244Z,100122.97
2023-04-23T20:05:42.146Z,100114.94
2023-04-23T20:08:15.180Z,100116.03
2023-04-23T20:10:43.352Z,100117.41
2023-04-23T20:13:10.330Z,100120.38
2023-04-23T20:15:37.557Z,100113.41
2023-04-23T20:18:05.435Z,100106.72
2023-04-23T20:20:33.917Z,100095.16
2023-04-23T20:23:00.814Z,100105.69
2023-04-23T20:25:27.720Z,100101.13
2023-04-23T20:27:56.810Z,100103.81
2023-04-23T20:30:24.248Z,100102.22
2023-04-23T20:32:51.518Z,100106.81
2023-04-23T20:35:18.581Z,100086.59
2023-04-23T20:37:46.112Z,100109.19
2023-04-23T20:40:14.382Z,100097.94
2023-04-23T20:42:42.368Z,100103.84
2023-04-23T20:45:13.013Z,100095.53
2023-04-23T20:47:40.116Z,100087.75
2023-04-23T20:50:08.271Z,100088.28
2023-04-23T20:52:36.113Z,100083.47
2023-04-23T20:55:03.355Z,100079.16
2023-04-23T20:57:30.310Z,100078.09
2023-04-23T20:59:57.224Z,100070.84
2023-04-23T21:02:24.861Z,100072.19
2023-04-23T21:04:51.963Z,100069.78
2023-04-23T21:07:20.055Z,100053.13
2023-04-23T21:09:47.228Z,100068.72
2023-04-23T21:12:14.897Z,100060.38
2023-04-23T21:14:42.432Z,100053.94
2023-04-23T21:17:09.465Z,100052.88
2023-04-23T21:19:36.655Z,100055.03
2023-04-23T21:22:03.628Z,100051.25
2023-04-23T21:24:30.878Z,100045.88
2023-04-23T21:26:58.012Z,100037.28
2023-04-23T21:29:26.404Z,100035.66
2023-04-23T21:31:53.734Z,100030.28
2023-04-23T21:34:21.637Z,100034.59
2023-04-23T21:36:49.380Z,100026.25
2023-04-23T21:39:16.383Z,100024.91
2023-04-23T21:41:45.035Z,100030.28
2023-04-23T21:44:12.140Z,100013.38
2023-04-23T21:46:39.175Z,100011.19
2023-04-23T21:49:07.086Z,100016.28
2023-04-23T21:51:37.147Z,100022.19
2023-04-23T21:54:08.248Z,100009.59
2023-04-23T21:56:36.039Z,100014.41
2023-04-23T21:59:03.051Z,100026.50
2023-04-23T22:01:32.493Z,100012.53
2023-04-23T22:04:01.824Z,100019.25
2023-04-23T22:06:29.474Z,100020.03
2023-04-23T22:08:57.471Z,100020.03
2023-04-23T22:11:24.442Z,100012.78
2023-04-23T22:13:51.490Z,100019.50
2023-04-23T22:16:28.629Z,100021.91
2023-04-23T22:18:57.583Z,100021.63
2023-04-23T22:21:24.611Z,100032.63
2023-04-23T22:23:51.812Z,100034.25
2023-04-23T22:26:19.181Z,100032.91
2023-04-23T22:28:46.507Z,100031.28
2023-04-23T22:31:13.567Z,100035.03
2023-04-23T22:33:40.522Z,100032.88
2023-04-23T22:36:07.455Z,100031.00
2023-04-23T22:38:34.925Z,100028.59
2023-04-23T22:41:02.482Z,100021.06
2023-04-23T22:43:29.394Z,100022.16
2023-04-23T22:45:56.481Z,100017.31
2023-04-23T22:48:23.850Z,100019.47
2023-04-23T22:50:51.595Z,100018.94
2023-04-23T22:53:19.423Z,100019.47
2023-04-23T22:55:46.851Z,100010.88
2023-04-23T22:58:13.987Z,99999.34
2023-04-23T23:00:41.092Z,99986.72
2023-04-23T23:03:08.313Z,99988.34
2023-04-23T23:05:38.006Z,99977.63
2023-04-23T23:08:05.091Z,99980.56
2023-04-23T23:10:32.483Z,99980.84
2023-04-23T23:12:59.831Z,99977.63
2023-04-23T23:15:26.845Z,99980.28
2023-04-23T23:17:53.942Z,99978.69
2023-04-23T23:20:21.277Z,99956.41
2023-04-23T23:22:48.302Z,99971.44
2023-04-23T23:25:16.272Z,99951.31
2023-04-23T23:27:43.318Z,99947.28
2023-04-23T23:30:10.730Z,99948.91
2023-04-23T23:32:38.225Z,99936.53
2023-04-23T23:35:06.330Z,99937.88
2023-04-23T23:37:33.350Z,99927.41
2023-04-23T23:40:00.593Z,99927.13
2023-04-23T23:42:27.898Z,99925.25
2023-04-23T23:44:54.819Z,99931.69
2023-04-23T23:47:22.001Z,99931.41
2023-04-23T23:49:48.993Z,99916.13
2023-04-23T23:52:16.202Z,99921.22
2023-04-23T23:54:43.343Z,99907.00
2023-04-23T23:57:10.955Z,99913.16
2023-04-23T23:59:38.089Z,99913.16
